sensor_id;sensor_type;location;lat;lon;timestamp;pressure;altitude;pressure_sealevel;temperature;humidity
55733;BME280;41637;52.364;9.910;2022-08-04T00:00:17;100672.98;;;22.92;66.53
55733;BME280;41637;52.364;9.910;2022-08-04T00:10:49;100675.96;;;22.80;67.12
55733;BME280;41637;52.364;9.910;2022-08-04T00:13:23;100678.53;;;22.77;67.30
55733;BME280;41637;52.364;9.910;2022-08-04T00:16:09;100678.29;;;22.74;67.30
55733;BME280;41637;52.364;9.910;2022-08-04T00:18:40;100677.23;;;22.71;67.45
55733;BME280;41637;52.364;9.910;2022-08-04T00:21:11;100677.96;;;22.67;67.69
55733;BME280;41637;52.364;9.910;2022-08-04T00:23:43;100672.95;;;22.64;67.82
55733;BME280;41637;52.364;9.910;2022-08-04T00:26:32;100667.99;;;22.60;68.20
55733;BME280;41637;52.364;9.910;2022-08-04T00:28:59;100666.06;;;22.57;68.10
55733;BME280;41637;52.364;9.910;2022-08-04T00:31:26;100667.05;;;22.52;68.39
55733;BME280;41637;52.364;9.910;2022-08-04T00:34:13;100675.73;;;22.46;69.29
55733;BME280;41637;52.364;9.910;2022-08-04T00:36:43;100683.73;;;22.26;70.93
55733;BME280;41637;52.364;9.910;2022-08-04T00:39:15;100684.63;;;22.03;70.56
55733;BME280;41637;52.364;9.910;2022-08-04T00:50:24;100680.84;;;21.73;71.44
55733;BME280;41637;52.364;9.910;2022-08-04T00:53:05;100679.13;;;21.70;71.68
55733;BME280;41637;52.364;9.910;2022-08-04T01:01:15;100675.02;;;21.63;72.30
55733;BME280;41637;52.364;9.910;2022-08-04T01:04:02;100667.33;;;21.61;72.60
55733;BME280;41637;52.364;9.910;2022-08-04T01:18:32;100658.83;;;21.59;73.01
55733;BME280;41637;52.364;9.910;2022-08-04T01:24:11;100652.01;;;21.56;73.20
55733;BME280;41637;52.364;9.910;2022-08-04T01:27:09;100657.33;;;21.55;73.25
55733;BME280;41637;52.364;9.910;2022-08-04T01:30:00;100656.80;;;21.52;73.44
55733;BME280;41637;52.364;9.910;2022-08-04T01:33:02;100659.35;;;21.49;73.55
55733;BME280;41637;52.364;9.910;2022-08-04T01:35:43;100658.45;;;21.40;73.65
55733;BME280;41637;52.364;9.910;2022-08-04T01:41:06;100665.05;;;21.13;73.72
55733;BME280;41637;52.364;9.910;2022-08-04T01:43:34;100664.67;;;21.03;74.03
55733;BME280;41637;52.364;9.910;2022-08-04T01:46:03;100663.55;;;20.97;74.25
55733;BME280;41637;52.364;9.910;2022-08-04T01:48:33;100665.48;;;20.93;74.54
55733;BME280;41637;52.364;9.910;2022-08-04T01:51:09;100663.41;;;20.89;74.84
55733;BME280;41637;52.364;9.910;2022-08-04T01:53:41;100662.73;;;20.84;75.03
55733;BME280;41637;52.364;9.910;2022-08-04T01:56:10;100661.87;;;20.80;75.56
55733;BME280;41637;52.364;9.910;2022-08-04T01:58:38;100663.58;;;20.79;75.81
55733;BME280;41637;52.364;9.910;2022-08-04T02:01:10;100659.92;;;20.76;76.01
55733;BME280;41637;52.364;9.910;2022-08-04T02:03:43;100658.28;;;20.75;76.19
55733;BME280;41637;52.364;9.910;2022-08-04T02:09:38;100653.71;;;20.73;76.70
55733;BME280;41637;52.364;9.910;2022-08-04T02:15:18;100644.73;;;20.70;77.33
55733;BME280;41637;52.364;9.910;2022-08-04T02:18:02;100643.58;;;20.69;77.45
55733;BME280;41637;52.364;9.910;2022-08-04T02:20:34;100645.24;;;20.69;77.54
55733;BME280;41637;52.364;9.910;2022-08-04T02:23:06;100644.91;;;20.69;77.78
55733;BME280;41637;52.364;9.910;2022-08-04T02:25:38;100644.82;;;20.70;77.84
55733;BME280;41637;52.364;9.910;2022-08-04T02:31:30;100634.21;;;20.67;77.90
55733;BME280;41637;52.364;9.910;2022-08-04T02:34:18;100630.96;;;20.67;78.01
55733;BME280;41637;52.364;9.910;2022-08-04T02:36:50;100629.02;;;20.66;78.09
55733;BME280;41637;52.364;9.910;2022-08-04T02:39:21;100631.16;;;20.65;78.20
55733;BME280;41637;52.364;9.910;2022-08-04T02:41:49;100628.08;;;20.62;78.51
55733;BME280;41637;52.364;9.910;2022-08-04T02:44:20;100627.66;;;20.58;78.69
55733;BME280;41637;52.364;9.910;2022-08-04T02:46:51;100629.84;;;20.53;78.85
55733;BME280;41637;52.364;9.910;2022-08-04T02:49:20;100629.66;;;20.50;79.01
55733;BME280;41637;52.364;9.910;2022-08-04T02:51:54;100629.80;;;20.45;79.28
55733;BME280;41637;52.364;9.910;2022-08-04T02:54:24;100625.94;;;20.40;79.66
55733;BME280;41637;52.364;9.910;2022-08-04T02:57:01;100625.59;;;20.35;79.90
55733;BME280;41637;52.364;9.910;2022-08-04T03:00:24;100624.76;;;20.31;80.22
55733;BME280;41637;52.364;9.910;2022-08-04T03:05:21;100628.55;;;20.27;80.52
55733;BME280;41637;52.364;9.910;2022-08-04T03:08:13;100631.45;;;20.27;80.52
55733;BME280;41637;52.364;9.910;2022-08-04T03:14:11;100628.23;;;20.23;80.63
55733;BME280;41637;52.364;9.910;2022-08-04T03:17:14;100622.16;;;20.22;80.74
55733;BME280;41637;52.364;9.910;2022-08-04T03:25:19;100626.75;;;20.20;80.99
55733;BME280;41637;52.364;9.910;2022-08-04T03:33:36;100621.20;;;20.16;81.45
55733;BME280;41637;52.364;9.910;2022-08-04T03:44:59;100618.11;;;20.16;81.53
55733;BME280;41637;52.364;9.910;2022-08-04T03:50:47;100623.05;;;20.15;81.52
55733;BME280;41637;52.364;9.910;2022-08-04T03:54:08;100621.35;;;20.13;81.34
55733;BME280;41637;52.364;9.910;2022-08-04T03:59:48;100619.56;;;20.10;81.14
55733;BME280;41637;52.364;9.910;2022-08-04T04:03:00;100622.61;;;20.09;81.15
55733;BME280;41637;52.364;9.910;2022-08-04T04:05:47;100620.41;;;20.07;81.06
55733;BME280;41637;52.364;9.910;2022-08-04T04:13:55;100619.27;;;20.09;81.12
55733;BME280;41637;52.364;9.910;2022-08-04T04:16:45;100622.15;;;20.13;81.22
55733;BME280;41637;52.364;9.910;2022-08-04T04:22:16;100622.84;;;20.15;81.08
55733;BME280;41637;52.364;9.910;2022-08-04T04:25:16;100625.88;;;20.16;81.14
55733;BME280;41637;52.364;9.910;2022-08-04T04:33:44;100627.35;;;20.23;81.18
55733;BME280;41637;52.364;9.910;2022-08-04T04:36:43;100624.40;;;20.27;81.08
55733;BME280;41637;52.364;9.910;2022-08-04T04:47:53;100617.07;;;20.48;80.61
55733;BME280;41637;52.364;9.910;2022-08-04T04:53:59;100618.56;;;20.56;80.39
55733;BME280;41637;52.364;9.910;2022-08-04T04:56:40;100619.09;;;20.60;80.25
55733;BME280;41637;52.364;9.910;2022-08-04T04:59:12;100618.52;;;20.64;80.18
55733;BME280;41637;52.364;9.910;2022-08-04T05:02:06;100616.23;;;20.69;80.18
55733;BME280;41637;52.364;9.910;2022-08-04T05:13:12;100620.70;;;20.89;79.55
55733;BME280;41637;52.364;9.910;2022-08-04T05:16:14;100614.48;;;20.98;79.41
55733;BME280;41637;52.364;9.910;2022-08-04T05:18:47;100614.52;;;21.04;79.14
55733;BME280;41637;52.364;9.910;2022-08-04T05:24:08;100613.50;;;21.15;78.79
55733;BME280;41637;52.364;9.910;2022-08-04T05:26:55;100615.56;;;21.23;78.51
55733;BME280;41637;52.364;9.910;2022-08-04T05:29:27;100615.46;;;21.32;78.34
55733;BME280;41637;52.364;9.910;2022-08-04T05:32:01;100615.48;;;21.41;78.22
55733;BME280;41637;52.364;9.910;2022-08-04T05:34:34;100613.25;;;21.48;77.97
55733;BME280;41637;52.364;9.910;2022-08-04T05:37:09;100612.16;;;21.52;77.65
55733;BME280;41637;52.364;9.910;2022-08-04T05:40:04;100611.52;;;21.51;77.36
55733;BME280;41637;52.364;9.910;2022-08-04T05:42:34;100605.59;;;21.53;77.39
55733;BME280;41637;52.364;9.910;2022-08-04T05:45:03;100609.15;;;21.61;77.40
55733;BME280;41637;52.364;9.910;2022-08-04T05:47:31;100606.80;;;21.76;77.37
55733;BME280;41637;52.364;9.910;2022-08-04T05:50:00;100607.84;;;21.91;77.10
55733;BME280;41637;52.364;9.910;2022-08-04T05:52:29;100598.84;;;22.09;76.81
55733;BME280;41637;52.364;9.910;2022-08-04T05:54:58;100602.64;;;22.29;76.41
55733;BME280;41637;52.364;9.910;2022-08-04T05:57:26;100598.61;;;22.47;75.49
55733;BME280;41637;52.364;9.910;2022-08-04T05:59:56;100593.15;;;22.59;74.46
55733;BME280;41637;52.364;9.910;2022-08-04T06:02:24;100597.02;;;22.71;73.93
55733;BME280;41637;52.364;9.910;2022-08-04T06:04:53;100591.67;;;22.85;73.32
55733;BME280;41637;52.364;9.910;2022-08-04T06:07:22;100589.59;;;22.96;72.92
55733;BME280;41637;52.364;9.910;2022-08-04T06:09:49;100591.02;;;23.12;72.73
55733;BME280;41637;52.364;9.910;2022-08-04T06:12:24;100591.98;;;23.28;72.17
55733;BME280;41637;52.364;9.910;2022-08-04T06:14:54;100589.80;;;23.46;71.58
55733;BME280;41637;52.364;9.910;2022-08-04T06:17:29;100585.61;;;23.64;70.47
55733;BME280;41637;52.364;9.910;2022-08-04T06:20:18;100584.70;;;23.79;69.45
55733;BME280;41637;52.364;9.910;2022-08-04T06:22:54;100586.66;;;23.94;68.54
55733;BME280;41637;52.364;9.910;2022-08-04T06:25:26;100584.63;;;24.06;67.40
55733;BME280;41637;52.364;9.910;2022-08-04T06:27:54;100585.58;;;24.20;67.23
55733;BME280;41637;52.364;9.910;2022-08-04T06:30:22;100587.39;;;24.36;66.95
55733;BME280;41637;52.364;9.910;2022-08-04T06:32:52;100587.92;;;24.53;66.16
55733;BME280;41637;52.364;9.910;2022-08-04T06:35:31;100586.55;;;24.70;65.32
55733;BME280;41637;52.364;9.910;2022-08-04T06:37:59;100585.84;;;24.88;65.10
55733;BME280;41637;52.364;9.910;2022-08-04T06:40:28;100580.05;;;25.08;64.46
55733;BME280;41637;52.364;9.910;2022-08-04T06:43:04;100574.17;;;25.24;63.61
55733;BME280;41637;52.364;9.910;2022-08-04T06:45:36;100575.77;;;25.35;62.62
55733;BME280;41637;52.364;9.910;2022-08-04T06:48:06;100573.98;;;25.50;62.49
55733;BME280;41637;52.364;9.910;2022-08-04T06:50:37;100572.60;;;25.71;62.25
55733;BME280;41637;52.364;9.910;2022-08-04T06:53:25;100574.82;;;25.98;61.68
55733;BME280;41637;52.364;9.910;2022-08-04T06:55:53;100573.79;;;26.22;61.28
55733;BME280;41637;52.364;9.910;2022-08-04T06:58:22;100572.64;;;26.38;58.63
55733;BME280;41637;52.364;9.910;2022-08-04T07:00:54;100572.50;;;26.49;58.36
55733;BME280;41637;52.364;9.910;2022-08-04T07:03:21;100568.17;;;26.68;58.97
55733;BME280;41637;52.364;9.910;2022-08-04T07:05:50;100564.20;;;26.92;58.35
55733;BME280;41637;52.364;9.910;2022-08-04T07:08:17;100561.24;;;27.09;58.11
55733;BME280;41637;52.364;9.910;2022-08-04T07:10:45;100559.27;;;27.27;57.36
55733;BME280;41637;52.364;9.910;2022-08-04T07:13:12;100558.53;;;27.44;55.95
55733;BME280;41637;52.364;9.910;2022-08-04T07:15:46;100558.28;;;27.59;55.86
55733;BME280;41637;52.364;9.910;2022-08-04T07:18:15;100556.08;;;27.78;55.40
55733;BME280;41637;52.364;9.910;2022-08-04T07:20:43;100553.94;;;27.96;54.78
55733;BME280;41637;52.364;9.910;2022-08-04T07:23:12;100552.96;;;28.14;53.41
55733;BME280;41637;52.364;9.910;2022-08-04T07:25:43;100552.25;;;28.32;52.08
55733;BME280;41637;52.364;9.910;2022-08-04T07:28:29;100552.91;;;28.52;52.01
55733;BME280;41637;52.364;9.910;2022-08-04T07:30:56;100548.45;;;28.73;50.99
55733;BME280;41637;52.364;9.910;2022-08-04T07:33:24;100549.00;;;28.92;49.72
55733;BME280;41637;52.364;9.910;2022-08-04T07:35:56;100546.62;;;29.11;48.64
55733;BME280;41637;52.364;9.910;2022-08-04T07:38:39;100542.36;;;29.28;47.20
55733;BME280;41637;52.364;9.910;2022-08-04T07:41:23;100538.29;;;29.51;47.25
55733;BME280;41637;52.364;9.910;2022-08-04T07:44:08;100538.86;;;29.78;45.48
55733;BME280;41637;52.364;9.910;2022-08-04T07:46:36;100539.21;;;29.96;44.69
55733;BME280;41637;52.364;9.910;2022-08-04T07:49:03;100538.02;;;30.10;43.13
55733;BME280;41637;52.364;9.910;2022-08-04T07:51:32;100540.20;;;30.27;43.53
55733;BME280;41637;52.364;9.910;2022-08-04T07:54:01;100539.84;;;30.48;44.01
55733;BME280;41637;52.364;9.910;2022-08-04T07:56:30;100538.67;;;30.64;41.98
55733;BME280;41637;52.364;9.910;2022-08-04T07:58:58;100536.63;;;30.71;41.40
55733;BME280;41637;52.364;9.910;2022-08-04T08:01:25;100530.54;;;30.81;40.75
55733;BME280;41637;52.364;9.910;2022-08-04T08:03:55;100527.48;;;30.90;37.91
55733;BME280;41637;52.364;9.910;2022-08-04T08:06:23;100528.41;;;31.03;36.95
55733;BME280;41637;52.364;9.910;2022-08-04T08:09:02;100522.02;;;31.15;36.87
55733;BME280;41637;52.364;9.910;2022-08-04T08:11:44;100521.71;;;31.28;37.53
55733;BME280;41637;52.364;9.910;2022-08-04T08:14:32;100518.02;;;31.38;35.64
55733;BME280;41637;52.364;9.910;2022-08-04T08:17:01;100520.23;;;31.48;35.40
55733;BME280;41637;52.364;9.910;2022-08-04T08:19:32;100519.99;;;31.61;35.29
55733;BME280;41637;52.364;9.910;2022-08-04T08:22:00;100520.90;;;31.69;34.56
55733;BME280;41637;52.364;9.910;2022-08-04T08:24:30;100518.27;;;31.80;34.34
55733;BME280;41637;52.364;9.910;2022-08-04T08:26:57;100518.55;;;31.95;34.03
55733;BME280;41637;52.364;9.910;2022-08-04T08:29:25;100516.30;;;32.13;34.28
55733;BME280;41637;52.364;9.910;2022-08-04T08:31:53;100517.70;;;32.30;33.59
55733;BME280;41637;52.364;9.910;2022-08-04T08:34:24;100514.43;;;32.46;33.14
55733;BME280;41637;52.364;9.910;2022-08-04T08:37:03;100515.23;;;32.54;32.99
55733;BME280;41637;52.364;9.910;2022-08-04T08:39:39;100512.85;;;32.54;32.73
55733;BME280;41637;52.364;9.910;2022-08-04T08:42:44;100510.20;;;32.61;32.90
55733;BME280;41637;52.364;9.910;2022-08-04T08:45:39;100507.55;;;32.81;33.25
55733;BME280;41637;52.364;9.910;2022-08-04T08:54:36;100503.50;;;33.15;32.03
55733;BME280;41637;52.364;9.910;2022-08-04T08:59:57;100497.66;;;33.47;31.60
55733;BME280;41637;52.364;9.910;2022-08-04T09:11:05;100496.08;;;34.14;30.14
55733;BME280;41637;52.364;9.910;2022-08-04T09:13:44;100494.62;;;34.24;29.08
55733;BME280;41637;52.364;9.910;2022-08-04T09:16:34;100494.30;;;34.35;29.00
55733;BME280;41637;52.364;9.910;2022-08-04T09:19:14;100490.14;;;34.45;28.64
55733;BME280;41637;52.364;9.910;2022-08-04T09:30:11;100484.30;;;34.82;27.78
55733;BME280;41637;52.364;9.910;2022-08-04T09:35:53;100478.77;;;34.96;26.91
55733;BME280;41637;52.364;9.910;2022-08-04T09:38:45;100477.29;;;35.09;26.63
55733;BME280;41637;52.364;9.910;2022-08-04T09:41:30;100473.59;;;35.14;26.03
55733;BME280;41637;52.364;9.910;2022-08-04T09:44:48;100473.46;;;35.28;26.16
55733;BME280;41637;52.364;9.910;2022-08-04T09:47:48;100473.25;;;35.39;25.97
55733;BME280;41637;52.364;9.910;2022-08-04T09:50:32;100466.34;;;35.50;25.51
55733;BME280;41637;52.364;9.910;2022-08-04T10:01:12;100461.70;;;36.01;24.87
55733;BME280;41637;52.364;9.910;2022-08-04T10:03:48;100460.21;;;36.12;24.94
55733;BME280;41637;52.364;9.910;2022-08-04T10:06:44;100459.41;;;36.21;24.73
55733;BME280;41637;52.364;9.910;2022-08-04T10:14:39;100452.30;;;36.61;24.46
55733;BME280;41637;52.364;9.910;2022-08-04T10:17:20;100452.00;;;36.62;24.02
55733;BME280;41637;52.364;9.910;2022-08-04T10:20:03;100455.45;;;36.64;23.64
55733;BME280;41637;52.364;9.910;2022-08-04T10:22:37;100452.30;;;36.55;23.49
55733;BME280;41637;52.364;9.910;2022-08-04T10:28:48;100445.02;;;36.48;23.47
55733;BME280;41637;52.364;9.910;2022-08-04T10:31:29;100442.58;;;36.45;24.07
55733;BME280;41637;52.364;9.910;2022-08-04T10:34:20;100440.42;;;36.50;23.74
55733;BME280;41637;52.364;9.910;2022-08-04T10:36:55;100436.88;;;36.53;23.83
55733;BME280;41637;52.364;9.910;2022-08-04T10:39:41;100436.71;;;36.57;23.70
55733;BME280;41637;52.364;9.910;2022-08-04T10:42:35;100436.67;;;36.64;24.05
55733;BME280;41637;52.364;9.910;2022-08-04T10:45:21;100437.46;;;36.77;23.15
55733;BME280;41637;52.364;9.910;2022-08-04T10:53:51;100431.23;;;36.61;22.77
55733;BME280;41637;52.364;9.910;2022-08-04T10:56:35;100428.42;;;36.69;23.22
55733;BME280;41637;52.364;9.910;2022-08-04T10:59:15;100417.85;;;36.90;23.27
55733;BME280;41637;52.364;9.910;2022-08-04T11:01:47;100422.93;;;37.09;23.10
55733;BME280;41637;52.364;9.910;2022-08-04T11:04:47;100424.80;;;37.25;22.78
55733;BME280;41637;52.364;9.910;2022-08-04T11:07:18;100427.32;;;37.25;22.34
55733;BME280;41637;52.364;9.910;2022-08-04T11:09:46;100430.56;;;37.25;21.98
55733;BME280;41637;52.364;9.910;2022-08-04T11:12:18;100430.88;;;37.32;22.03
55733;BME280;41637;52.364;9.910;2022-08-04T11:14:50;100426.39;;;37.41;22.17
55733;BME280;41637;52.364;9.910;2022-08-04T11:17:25;100436.98;;;37.45;22.29
55733;BME280;41637;52.364;9.910;2022-08-04T11:20:16;100426.51;;;37.48;22.69
55733;BME280;41637;52.364;9.910;2022-08-04T11:23:16;100427.61;;;37.51;22.70
55733;BME280;41637;52.364;9.910;2022-08-04T11:29:04;100417.23;;;37.77;22.57
55733;BME280;41637;52.364;9.910;2022-08-04T11:31:39;100422.39;;;37.99;22.80
55733;BME280;41637;52.364;9.910;2022-08-04T11:34:26;100420.15;;;38.15;22.45
55733;BME280;41637;52.364;9.910;2022-08-04T11:37:10;100417.38;;;38.24;22.43
55733;BME280;41637;52.364;9.910;2022-08-04T11:39:49;100416.38;;;38.30;22.37
55733;BME280;41637;52.364;9.910;2022-08-04T11:42:26;100411.84;;;38.39;22.46
55733;BME280;41637;52.364;9.910;2022-08-04T11:50:36;100410.09;;;37.97;22.84
55733;BME280;41637;52.364;9.910;2022-08-04T11:53:05;100401.98;;;38.00;22.93
55733;BME280;41637;52.364;9.910;2022-08-04T11:55:33;100417.96;;;37.91;22.60
55733;BME280;41637;52.364;9.910;2022-08-04T11:58:22;100415.15;;;37.80;22.94
55733;BME280;41637;52.364;9.910;2022-08-04T12:00:55;100421.47;;;37.79;23.05
55733;BME280;41637;52.364;9.910;2022-08-04T12:03:45;100419.90;;;37.80;22.87
55733;BME280;41637;52.364;9.910;2022-08-04T12:06:47;100413.20;;;38.12;22.71
55733;BME280;41637;52.364;9.910;2022-08-04T12:09:51;100410.39;;;38.46;22.18
55733;BME280;41637;52.364;9.910;2022-08-04T12:12:34;100413.10;;;38.78;22.39
55733;BME280;41637;52.364;9.910;2022-08-04T12:15:46;100413.43;;;38.95;21.87
55733;BME280;41637;52.364;9.910;2022-08-04T12:18:29;100414.95;;;39.07;21.83
55733;BME280;41637;52.364;9.910;2022-08-04T12:23:49;100410.05;;;39.67;20.88
55733;BME280;41637;52.364;9.910;2022-08-04T12:26:36;100399.96;;;40.22;20.42
55733;BME280;41637;52.364;9.910;2022-08-04T12:29:04;100414.94;;;40.57;18.84
55733;BME280;41637;52.364;9.910;2022-08-04T12:31:50;100410.63;;;40.74;18.29
55733;BME280;41637;52.364;9.910;2022-08-04T12:34:31;100414.75;;;41.00;18.61
55733;BME280;41637;52.364;9.910;2022-08-04T12:37:27;100410.36;;;41.12;18.58
55733;BME280;41637;52.364;9.910;2022-08-04T12:40:00;100403.16;;;41.62;18.36
55733;BME280;41637;52.364;9.910;2022-08-04T12:45:56;100389.61;;;42.60;17.71
55733;BME280;41637;52.364;9.910;2022-08-04T12:48:24;100392.43;;;42.85;16.95
55733;BME280;41637;52.364;9.910;2022-08-04T12:50:54;100385.79;;;42.96;17.09
55733;BME280;41637;52.364;9.910;2022-08-04T12:53:25;100394.09;;;42.89;16.90
55733;BME280;41637;52.364;9.910;2022-08-04T12:55:58;100394.91;;;43.06;17.14
55733;BME280;41637;52.364;9.910;2022-08-04T12:58:31;100381.77;;;43.40;16.84
55733;BME280;41637;52.364;9.910;2022-08-04T13:01:19;100382.73;;;43.66;16.32
55733;BME280;41637;52.364;9.910;2022-08-04T13:06:40;100378.60;;;44.09;15.94
55733;BME280;41637;52.364;9.910;2022-08-04T13:09:13;100384.61;;;43.45;16.39
55733;BME280;41637;52.364;9.910;2022-08-04T13:11:49;100373.06;;;42.78;17.22
55733;BME280;41637;52.364;9.910;2022-08-04T13:14:19;100379.95;;;42.68;16.91
55733;BME280;41637;52.364;9.910;2022-08-04T13:16:59;100373.40;;;43.49;16.53
55733;BME280;41637;52.364;9.910;2022-08-04T13:19:28;100370.30;;;44.35;15.70
55733;BME280;41637;52.364;9.910;2022-08-04T13:22:06;100363.83;;;44.88;15.35
55733;BME280;41637;52.364;9.910;2022-08-04T13:24:34;100369.07;;;45.47;14.80
55733;BME280;41637;52.364;9.910;2022-08-04T13:27:23;100367.28;;;45.76;14.42
55733;BME280;41637;52.364;9.910;2022-08-04T13:29:54;100367.08;;;45.88;14.48
55733;BME280;41637;52.364;9.910;2022-08-04T13:32:29;100363.11;;;45.66;14.44
55733;BME280;41637;52.364;9.910;2022-08-04T13:34:59;100363.94;;;44.82;15.17
55733;BME280;41637;52.364;9.910;2022-08-04T13:37:35;100368.05;;;43.52;15.98
55733;BME280;41637;52.364;9.910;2022-08-04T13:40:04;100360.45;;;42.52;17.14
55733;BME280;41637;52.364;9.910;2022-08-04T13:42:33;100357.97;;;41.68;17.73
55733;BME280;41637;52.364;9.910;2022-08-04T13:45:02;100354.52;;;40.92;18.33
55733;BME280;41637;52.364;9.910;2022-08-04T13:47:34;100351.56;;;40.24;19.28
55733;BME280;41637;52.364;9.910;2022-08-04T13:50:17;100362.05;;;39.59;20.00
55733;BME280;41637;52.364;9.910;2022-08-04T13:52:46;100362.53;;;38.87;20.88
55733;BME280;41637;52.364;9.910;2022-08-04T13:57:56;100353.27;;;38.20;22.26
55733;BME280;41637;52.364;9.910;2022-08-04T14:00:25;100352.00;;;38.29;22.30
55733;BME280;41637;52.364;9.910;2022-08-04T14:03:01;100347.13;;;38.17;22.14
55733;BME280;41637;52.364;9.910;2022-08-04T14:06:19;100339.20;;;38.10;22.17
55733;BME280;41637;52.364;9.910;2022-08-04T14:08:48;100341.84;;;38.03;22.39
55733;BME280;41637;52.364;9.910;2022-08-04T14:11:17;100332.70;;;37.92;22.47
55733;BME280;41637;52.364;9.910;2022-08-04T14:14:16;100325.73;;;37.92;22.86
55733;BME280;41637;52.364;9.910;2022-08-04T14:17:04;100324.38;;;38.05;22.34
55733;BME280;41637;52.364;9.910;2022-08-04T14:25:13;100323.20;;;40.14;20.43
55733;BME280;41637;52.364;9.910;2022-08-04T14:27:53;100321.48;;;41.22;19.87
55733;BME280;41637;52.364;9.910;2022-08-04T14:30:30;100318.32;;;41.48;19.15
55733;BME280;41637;52.364;9.910;2022-08-04T14:35:58;100327.15;;;40.55;19.72
55733;BME280;41637;52.364;9.910;2022-08-04T14:38:50;100328.67;;;40.71;19.61
55733;BME280;41637;52.364;9.910;2022-08-04T14:41:24;100323.77;;;41.97;18.36
55733;BME280;41637;52.364;9.910;2022-08-04T14:43:54;100323.26;;;42.47;17.74
55733;BME280;41637;52.364;9.910;2022-08-04T14:46:22;100315.33;;;42.18;17.87
55733;BME280;41637;52.364;9.910;2022-08-04T14:49:11;100318.54;;;41.45;18.58
55733;BME280;41637;52.364;9.910;2022-08-04T14:51:43;100313.73;;;41.75;18.72
55733;BME280;41637;52.364;9.910;2022-08-04T14:54:13;100314.61;;;42.25;18.13
55733;BME280;41637;52.364;9.910;2022-08-04T14:56:55;100307.25;;;42.71;17.52
55733;BME280;41637;52.364;9.910;2022-08-04T14:59:24;100306.13;;;43.13;17.31
55733;BME280;41637;52.364;9.910;2022-08-04T15:01:51;100311.09;;;43.08;17.29
55733;BME280;41637;52.364;9.910;2022-08-04T15:04:28;100311.63;;;42.53;17.63
55733;BME280;41637;52.364;9.910;2022-08-04T15:06:56;100318.59;;;41.83;18.23
55733;BME280;41637;52.364;9.910;2022-08-04T15:09:23;100325.27;;;41.05;18.69
55733;BME280;41637;52.364;9.910;2022-08-04T15:11:51;100329.10;;;40.49;19.23
55733;BME280;41637;52.364;9.910;2022-08-04T15:14:19;100330.95;;;39.89;19.84
55733;BME280;41637;52.364;9.910;2022-08-04T15:17:03;100331.17;;;39.34;20.25
55733;BME280;41637;52.364;9.910;2022-08-04T15:19:38;100337.92;;;38.90;20.71
55733;BME280;41637;52.364;9.910;2022-08-04T15:22:05;100337.66;;;38.44;23.09
55733;BME280;41637;52.364;9.910;2022-08-04T15:24:43;100325.40;;;37.99;24.00
55733;BME280;41637;52.364;9.910;2022-08-04T15:27:18;100322.56;;;37.83;24.73
55733;BME280;41637;52.364;9.910;2022-08-04T15:29:46;100316.01;;;38.21;24.71
55733;BME280;41637;52.364;9.910;2022-08-04T15:32:28;100315.56;;;39.07;23.81
55733;BME280;41637;52.364;9.910;2022-08-04T15:35:03;100315.21;;;39.33;23.40
55733;BME280;41637;52.364;9.910;2022-08-04T15:37:45;100318.09;;;39.27;23.79
55733;BME280;41637;52.364;9.910;2022-08-04T15:40:18;100312.48;;;39.01;23.75
55733;BME280;41637;52.364;9.910;2022-08-04T15:43:30;100318.40;;;38.82;23.97
55733;BME280;41637;52.364;9.910;2022-08-04T15:46:05;100332.48;;;39.03;23.69
55733;BME280;41637;52.364;9.910;2022-08-04T15:48:51;100328.77;;;38.87;23.06
55733;BME280;41637;52.364;9.910;2022-08-04T15:51:25;100333.50;;;38.40;22.57
55733;BME280;41637;52.364;9.910;2022-08-04T15:58:56;100367.83;;;36.61;24.91
55733;BME280;41637;52.364;9.910;2022-08-04T16:01:23;100370.42;;;36.31;25.93
55733;BME280;41637;52.364;9.910;2022-08-04T16:03:54;100373.91;;;35.86;27.05
55733;BME280;41637;52.364;9.910;2022-08-04T16:08:59;100385.70;;;34.86;30.75
55733;BME280;41637;52.364;9.910;2022-08-04T16:19:25;100408.19;;;32.50;36.22
55733;BME280;41637;52.364;9.910;2022-08-04T16:22:02;100406.86;;;32.19;37.03
55733;BME280;41637;52.364;9.910;2022-08-04T16:24:35;100414.60;;;32.03;37.34
55733;BME280;41637;52.364;9.910;2022-08-04T16:27:04;100433.02;;;31.76;38.27
55733;BME280;41637;52.364;9.910;2022-08-04T16:29:40;100436.95;;;31.49;39.11
55733;BME280;41637;52.364;9.910;2022-08-04T16:32:18;100439.55;;;31.11;40.03
55733;BME280;41637;52.364;9.910;2022-08-04T16:37:34;100441.99;;;30.67;39.85
55733;BME280;41637;52.364;9.910;2022-08-04T16:40:33;100451.52;;;30.51;39.73
55733;BME280;41637;52.364;9.910;2022-08-04T16:43:09;100456.55;;;30.28;38.54
55733;BME280;41637;52.364;9.910;2022-08-04T16:48:16;100462.60;;;29.86;38.97
55733;BME280;41637;52.364;9.910;2022-08-04T16:51:07;100456.90;;;29.69;39.31
55733;BME280;41637;52.364;9.910;2022-08-04T16:53:43;100462.20;;;29.56;39.94
55733;BME280;41637;52.364;9.910;2022-08-04T16:56:27;100462.31;;;29.43;39.95
55733;BME280;41637;52.364;9.910;2022-08-04T16:58:54;100470.50;;;29.33;40.32
55733;BME280;41637;52.364;9.910;2022-08-04T17:01:21;100472.19;;;29.24;40.28
55733;BME280;41637;52.364;9.910;2022-08-04T17:04:00;100470.30;;;29.11;40.57
55733;BME280;41637;52.364;9.910;2022-08-04T17:06:37;100472.39;;;29.04;40.89
55733;BME280;41637;52.364;9.910;2022-08-04T17:09:08;100472.91;;;28.98;41.31
55733;BME280;41637;52.364;9.910;2022-08-04T17:11:36;100476.58;;;28.93;41.24
55733;BME280;41637;52.364;9.910;2022-08-04T17:14:03;100469.98;;;28.86;41.59
55733;BME280;41637;52.364;9.910;2022-08-04T17:16:41;100463.17;;;28.84;41.72
55733;BME280;41637;52.364;9.910;2022-08-04T17:19:09;100464.55;;;28.81;42.19
55733;BME280;41637;52.364;9.910;2022-08-04T17:22:02;100462.57;;;28.74;42.72